Estación Meteorológica Peña el Pijo (Robertgarden) [ 06/25/17 17:36:31 CEST ]

Fecha Hora Presion(HPa) Temp (°C) Humedad % Rocio (°C) Viento ( m/s) Direccion Lluvia 1Hora(mm) Lluvia 24H(mm) LLuvia Total(mm)
2017-May-17 01:01:43 1016.600 9.2 64 2.7         1390.83
2017-May-17 02:01:47 1016.100 7.9 69 2.6         1390.83
2017-May-17 03:05:23 1015.300 7.2 71 2.3         1390.83
2017-May-17 04:01:42 1014.600 6.8 73 2.3         1390.83
2017-May-17 05:01:38 1014.300 6.1 75 2.0         1390.83
2017-May-17 06:01:46 1014.200 5.4 77 1.7         1390.83
2017-May-17 07:01:43 1013.700 4.5 79 1.2         1390.83
2017-May-17 08:01:59 1013.700 7.4 81 4.4         1390.83
2017-May-17 09:01:52 1013.600 13.6 66 7.3         1390.83
2017-May-17 10:01:39 1013.400 18.2 47 6.6         1390.83
2017-May-17 11:01:41 1013.200 22.7 33 5.5         1390.83
2017-May-17 12:01:46 1012.700 27.2 24 4.7 0.6 SE     1390.83
2017-May-17 13:01:51 1012.400 26.4 21 2.2         1390.83
2017-May-17 14:01:42 1011.900 25.7 21 1.6         1390.83
2017-May-17 15:01:40 1011.300 28.9 19 2.8         1390.83
2017-May-17 16:01:54 1010.500 28.1 22 4.2         1390.83
2017-May-17 17:01:49 1010.000 29.1 21 4.5         1390.83
2017-May-17 18:01:36 1009.600 27.9 23 4.7         1390.83
2017-May-17 19:01:40 1009.400 25.9 23 3.0         1390.83
2017-May-17 20:01:48 1009.200 24.4 27 4.0         1390.83
2017-May-17 21:01:56 1009.200 20.4 32 3.1         1390.83
2017-May-17 22:01:49 1009.800 17.4 37 2.5         1390.83
2017-May-17 23:01:44 1010.400 13.8 50 3.6         1390.83

Temperatura Máxima:29°    Temperatura Mínima:
Presión Máxima:1016.600 Hpa    Presión Mínima:1009.200 Hpa


Volver